This is the latest recevied weather packets stored in our database for station/object KE8AFF-13. If no packets are shown the sender has not sent any weather packets the latest 10 day(s).
| Time | Temp. | Humidity | Pressure | Rain* | Wind** | Luminosity | Snow |
|---|---|---|---|---|---|---|---|
| 1778184125 | 13.33° C | 44% | 1012.5 hPa | 0 mm | - | 619 W/m² | - |
| 1778183821 | 13.33° C | 45% | 1012.2 hPa | 0 mm | - | 652 W/m² | - |
| 1778183518 | 13.89° C | 46% | 1012.4 hPa | 0 mm | - | 645 W/m² | - |
| 1778183215 | 12.78° C | 48% | 1012.5 hPa | 0 mm | - | 672 W/m² | - |
| 1778182911 | 12.78° C | 49% | 1012.6 hPa | 0 mm | - | 700 W/m² | - |
| 1778182608 | 12.78° C | 50% | 1012.8 hPa | 0 mm | - | 205 W/m² | - |
| 1778182305 | 13.33° C | 48% | 1012.7 hPa | 0 mm | - | 697 W/m² | - |
| 1778182000 | 13.33° C | 48% | 1012.8 hPa | 0 mm | - | 741 W/m² | - |
| 1778181698 | 13.33° C | 49% | 1012.8 hPa | 0 mm | - | 221 W/m² | - |
| 1778181394 | 12.78° C | 49% | 1012.7 hPa | 0 mm | - | 198 W/m² | - |
| 1778181091 | 12.78° C | 50% | 1012.8 hPa | 0 mm | - | 178 W/m² | - |
| 1778180788 | 13.33° C | 48% | 1013.1 hPa | 0 mm | - | 813 W/m² | - |
| 1778180487 | 12.78° C | 51% | 1013 hPa | 0 mm | - | 837 W/m² | - |
| 1778180185 | 12.78° C | 50% | 1013 hPa | 0 mm | - | 803 W/m² | - |
| 1778179881 | 12.22° C | 50% | 1013.2 hPa | 0 mm | - | 189 W/m² | - |
| 1778179579 | 12.78° C | 51% | 1013 hPa | 0 mm | - | 238 W/m² | - |
| 1778179277 | 12.78° C | 53% | 1013.2 hPa | 0 mm | - | 833 W/m² | - |
| 1778178973 | 12.78° C | 51% | 1013.1 hPa | 0 mm | - | 849 W/m² | - |
| 1778178670 | 12.78° C | 51% | 1013.2 hPa | 0 mm | - | 787 W/m² | - |
| 1778178366 | 12.78° C | 49% | 1013.2 hPa | 0 mm | - | 799 W/m² | - |
| 1778178062 | 12.78° C | 48% | 1013.1 hPa | 0 mm | - | 757 W/m² | - |
| 1778177759 | 12.78° C | 50% | 1013 hPa | 0 mm | - | 760 W/m² | - |
| 1778177455 | 12.22° C | 55% | 1013.3 hPa | 0 mm | - | 762 W/m² | - |
| 1778177152 | 12.78° C | 52% | 1013.5 hPa | 0 mm | - | 842 W/m² | - |
| 1778176849 | 12.22° C | 53% | 1013.1 hPa | 0 mm | - | 829 W/m² | - |
* Rain latest hour (hover to see other rain measurements)
** Current wind speed in m/s (hover to see current wind gust speed)